Time;durP1;ratioP1;P1;durP2;ratioP2;P2;SDS_P1;SDS_P2;PMS_P1;PMS_P2;Temp;Humidity;BMP_temperature;BMP_pressure;BME280_temperature;BME280_humidity;BME280_pressure;Samples;Min_cycle;Max_cycle;Signal;HPM_P1;HPM_P2
2022/09/14 00:00:55;;;;;;;2.72;0.93;;;;;;;;;;5047236;28;20381;-80
2022/09/14 00:03:21;;;;;;;2.70;0.80;;;;;;;;;;5049905;28;20027;-80
2022/09/14 00:05:47;;;;;;;4.43;1.23;;;;;;;;;;5048559;28;20469;-79
2022/09/14 00:08:13;;;;;;;2.05;0.70;;;;;;;;;;5062761;28;20017;-79
2022/09/14 00:10:40;;;;;;;4.97;1.17;;;;;;;;;;5069231;28;20036;-80
2022/09/14 00:13:05;;;;;;;3.65;1.00;;;;;;;;;;5049113;28;20032;-79
2022/09/14 00:15:34;;;;;;;3.45;1.05;;;;;;;;;;5067382;28;20028;-79
2022/09/14 00:18:00;;;;;;;4.03;1.05;;;;;;;;;;5047416;28;20401;-79
2022/09/14 00:20:25;;;;;;;4.63;1.10;;;;;;;;;;5066717;28;20031;-80
2022/09/14 00:22:50;;;;;;;4.45;0.95;;;;;;;;;;5070370;28;20039;-79
2022/09/14 00:25:17;;;;;;;2.67;0.98;;;;;;;;;;5049039;28;20027;-79
2022/09/14 00:27:42;;;;;;;5.95;1.30;;;;;;;;;;5061746;28;20024;-81
2022/09/14 00:30:08;;;;;;;2.60;1.00;;;;;;;;;;5049841;28;20476;-81
2022/09/14 00:32:34;;;;;;;4.15;1.15;;;;;;;;;;5067620;28;20526;-78
2022/09/14 00:34:59;;;;;;;2.40;1.10;;;;;;;;;;5059764;28;20161;-79
2022/09/14 00:37:24;;;;;;;2.67;0.90;;;;;;;;;;5068399;28;20036;-81
2022/09/14 00:39:50;;;;;;;2.47;0.80;;;;;;;;;;5062631;28;20046;-79
2022/09/14 00:42:18;;;;;;;3.17;1.10;;;;;;;;;;5050769;28;20035;-80
2022/09/14 00:44:46;;;;;;;4.60;0.82;;;;;;;;;;5050114;28;20032;-79
2022/09/14 00:47:13;;;;;;;3.95;1.00;;;;;;;;;;5069260;28;20017;-80
2022/09/14 00:49:41;;;;;;;3.17;0.90;;;;;;;;;;5062472;28;20054;-80
2022/09/14 00:52:20;;;;;;;1.90;0.82;;;;;;;;;;5044727;28;20098;-79
2022/09/14 00:54:52;;;;;;;2.53;0.90;;;;;;;;;;5045777;28;20020;-79
2022/09/14 00:57:19;;;;;;;4.07;0.82;;;;;;;;;;5046666;28;20101;-79
2022/09/14 00:59:47;;;;;;;3.17;0.82;;;;;;;;;;5060719;28;20696;-81
2022/09/14 01:02:14;;;;;;;3.60;0.90;;;;;;;;;;5066441;28;20020;-79
2022/09/14 01:04:40;;;;;;;4.93;1.02;;;;;;;;;;5048553;28;20032;-79
2022/09/14 01:07:25;;;;;;;2.47;0.80;;;;;;;;;;5046936;28;20258;-79
2022/09/14 01:10:05;;;;;;;2.58;0.95;;;;;;;;;;5047474;28;20040;-80
2022/09/14 01:12:48;;;;;;;2.97;1.00;;;;;;;;;;5043184;28;20060;-79
2022/09/14 01:15:39;;;;;;;4.85;1.10;;;;;;;;;;5064316;28;20028;-79
2022/09/14 01:18:14;;;;;;;4.68;1.30;;;;;;;;;;5049798;28;20064;-79
2022/09/14 01:20:43;;;;;;;3.03;1.15;;;;;;;;;;5061789;28;20037;-79
2022/09/14 01:23:33;;;;;;;3.67;1.10;;;;;;;;;;5050936;28;20078;-79
2022/09/14 01:26:07;;;;;;;3.30;0.93;;;;;;;;;;5042927;28;20492;-79
2022/09/14 01:28:38;;;;;;;4.63;1.08;;;;;;;;;;5046711;28;20028;-79
2022/09/14 01:31:10;;;;;;;4.68;1.17;;;;;;;;;;5046790;28;20380;-79
2022/09/14 01:33:45;;;;;;;2.47;0.70;;;;;;;;;;5046932;28;20040;-79
2022/09/14 01:36:13;;;;;;;4.43;1.10;;;;;;;;;;5048159;28;20028;-79
2022/09/14 01:38:45;;;;;;;3.35;1.00;;;;;;;;;;5047075;28;20534;-79
2022/09/14 01:41:14;;;;;;;3.35;0.90;;;;;;;;;;5062190;28;20024;-79
2022/09/14 01:43:48;;;;;;;5.65;1.27;;;;;;;;;;5065469;28;20047;-79
2022/09/14 01:46:20;;;;;;;2.90;1.00;;;;;;;;;;5047154;28;20036;-79
2022/09/14 01:49:01;;;;;;;3.60;1.05;;;;;;;;;;5055868;28;20105;-79
2022/09/14 01:51:38;;;;;;;6.13;1.00;;;;;;;;;;5041310;28;20496;-79
2022/09/14 01:54:31;;;;;;;4.07;1.17;;;;;;;;;;5067236;28;20115;-78
2022/09/14 01:57:10;;;;;;;;;;;;;;;;;;5054553;28;20134;-79
2022/09/14 01:59:41;;;;;;;2.80;1.02;;;;;;;;;;5062733;28;20391;-79
2022/09/14 02:02:22;;;;;;;5.05;1.08;;;;;;;;;;5060683;28;20032;-79
2022/09/14 02:05:08;;;;;;;2.47;0.80;;;;;;;;;;5061639;28;20031;-81
2022/09/14 02:07:35;;;;;;;4.63;1.02;;;;;;;;;;5066417;28;20568;-78
2022/09/14 02:10:02;;;;;;;2.35;0.93;;;;;;;;;;5045933;28;20124;-79
2022/09/14 02:12:28;;;;;;;4.80;1.15;;;;;;;;;;5059376;28;20036;-78
2022/09/14 02:14:54;;;;;;;4.95;0.95;;;;;;;;;;5044807;28;20392;-78
2022/09/14 02:17:20;;;;;;;4.30;1.90;;;;;;;;;;5064756;28;20028;-78
2022/09/14 02:19:58;;;;;;;6.00;1.10;;;;;;;;;;5060762;28;20024;-78
2022/09/14 02:22:26;;;;;;;5.88;1.00;;;;;;;;;;5062996;28;20399;-80
2022/09/14 02:24:52;;;;;;;2.80;1.02;;;;;;;;;;5045942;28;20112;-79
2022/09/14 02:27:17;;;;;;;4.30;0.90;;;;;;;;;;5044257;28;20025;-78
2022/09/14 02:29:43;;;;;;;2.50;0.80;;;;;;;;;;5064742;28;20076;-78
2022/09/14 02:32:20;;;;;;;4.00;1.00;;;;;;;;;;5060110;28;20027;-80
2022/09/14 02:35:07;;;;;;;4.55;0.93;;;;;;;;;;5046829;28;20025;-79
2022/09/14 02:38:02;;;;;;;2.92;0.90;;;;;;;;;;5046519;28;20362;-78
2022/09/14 02:40:38;;;;;;;2.58;1.40;;;;;;;;;;5061164;28;20028;-78
2022/09/14 02:43:45;;;;;;;1.92;0.85;;;;;;;;;;5049111;28;20123;-81
2022/09/14 02:46:16;;;;;;;3.50;0.98;;;;;;;;;;5047673;28;20032;-79
2022/09/14 02:48:47;;;;;;;2.35;0.93;;;;;;;;;;5048252;28;20032;-79
2022/09/14 02:51:33;;;;;;;2.97;1.00;;;;;;;;;;5060331;28;20059;-79
2022/09/14 02:54:03;;;;;;;1.92;0.85;;;;;;;;;;5062976;28;20032;-78
2022/09/14 02:56:30;;;;;;;2.92;1.00;;;;;;;;;;5060371;28;20021;-79
2022/09/14 02:58:55;;;;;;;4.35;1.20;;;;;;;;;;5043633;28;20472;-78
2022/09/14 03:01:22;;;;;;;5.22;1.30;;;;;;;;;;5042669;28;20037;-78
2022/09/14 03:03:48;;;;;;;4.38;1.33;;;;;;;;;;5059571;28;20052;-78
2022/09/14 03:06:14;;;;;;;4.05;1.10;;;;;;;;;;5045230;28;20310;-78
2022/09/14 03:08:40;;;;;;;3.03;1.00;;;;;;;;;;5045611;28;20048;-78
2022/09/14 03:11:06;;;;;;;3.33;0.90;;;;;;;;;;5062081;28;20033;-78
2022/09/14 03:13:33;;;;;;;4.45;1.13;;;;;;;;;;5057908;28;20510;-80
2022/09/14 03:16:06;;;;;;;2.95;0.95;;;;;;;;;;5066242;28;20041;-78
2022/09/14 03:18:32;;;;;;;;;;;;;;;;;;5038610;28;20499;-78
2022/09/14 03:21:08;;;;;;;3.42;0.98;;;;;;;;;;5065596;28;19921;-79
2022/09/14 03:23:41;;;;;;;2.78;1.00;;;;;;;;;;5062505;28;20409;-78
2022/09/14 03:26:13;;;;;;;;;;;;;;;;;;5044857;28;21807;-79
2022/09/14 03:28:39;;;;;;;3.25;0.93;;;;;;;;;;5062543;28;19912;-79
2022/09/14 03:31:07;;;;;;;4.55;1.33;;;;;;;;;;5059773;28;20044;-78
2022/09/14 03:33:33;;;;;;;3.50;1.13;;;;;;;;;;5050889;28;20016;-78
2022/09/14 03:35:59;;;;;;;4.07;0.98;;;;;;;;;;5066251;28;20430;-78
2022/09/14 03:38:28;;;;;;;2.47;1.00;;;;;;;;;;5051031;28;20073;-79
2022/09/14 03:40:55;;;;;;;3.50;1.30;;;;;;;;;;5067279;28;20380;-78
2022/09/14 03:43:20;;;;;;;4.03;1.13;;;;;;;;;;5053345;28;20033;-81
2022/09/14 03:45:46;;;;;;;3.75;1.00;;;;;;;;;;5049341;28;20032;-78
2022/09/14 03:48:14;;;;;;;5.30;1.30;;;;;;;;;;5049316;28;20058;-79
2022/09/14 03:50:40;;;;;;;2.17;1.00;;;;;;;;;;5067808;28;20036;-77
2022/09/14 03:53:05;;;;;;;5.15;1.10;;;;;;;;;;5064153;28;20036;-78
2022/09/14 03:55:30;;;;;;;3.00;1.10;;;;;;;;;;5044713;28;20033;-78
2022/09/14 03:57:56;;;;;;;2.00;0.90;;;;;;;;;;5053576;28;20039;-78
2022/09/14 04:00:22;;;;;;;1.30;0.80;;;;;;;;;;5068764;28;20112;-78
2022/09/14 04:02:48;;;;;;;2.85;1.00;;;;;;;;;;5065914;28;20036;-79
2022/09/14 04:05:13;;;;;;;8.68;1.50;;;;;;;;;;5049676;28;20028;-78
2022/09/14 04:07:39;;;;;;;5.47;0.80;;;;;;;;;;5068627;28;20035;-78
2022/09/14 04:10:06;;;;;;;3.80;1.10;;;;;;;;;;5062851;28;20424;-78
2022/09/14 04:12:35;;;;;;;3.03;0.80;;;;;;;;;;5051838;28;20032;-79
2022/09/14 04:15:01;;;;;;;3.15;1.08;;;;;;;;;;5048954;28;20069;-79
2022/09/14 04:17:27;;;;;;;3.38;0.95;;;;;;;;;;5053573;28;20434;-78
2022/09/14 04:19:53;;;;;;;3.03;0.90;;;;;;;;;;5048294;28;20063;-79
2022/09/14 04:22:18;;;;;;;2.92;1.10;;;;;;;;;;5051355;28;20029;-78
2022/09/14 04:24:43;;;;;;;2.50;1.00;;;;;;;;;;5063510;28;20028;-79
2022/09/14 04:27:09;;;;;;;3.20;1.00;;;;;;;;;;5062289;28;20165;-79
2022/09/14 04:29:34;;;;;;;3.65;0.90;;;;;;;;;;5048214;28;20032;-79
2022/09/14 04:32:00;;;;;;;1.98;0.88;;;;;;;;;;5068120;28;20532;-80
2022/09/14 04:34:25;;;;;;;2.95;1.15;;;;;;;;;;5065493;28;20039;-79
2022/09/14 04:36:51;;;;;;;3.40;1.20;;;;;;;;;;5063247;28;20118;-79
2022/09/14 04:39:16;;;;;;;2.35;1.10;;;;;;;;;;5063092;28;20052;-79
2022/09/14 04:41:41;;;;;;;2.78;1.00;;;;;;;;;;5064120;28;20027;-79
2022/09/14 04:44:07;;;;;;;3.08;1.17;;;;;;;;;;5069172;28;20033;-79
2022/09/14 04:46:38;;;;;;;1.63;0.82;;;;;;;;;;5065621;28;20121;-79
2022/09/14 04:49:04;;;;;;;4.13;1.05;;;;;;;;;;5051478;28;20036;-79
2022/09/14 04:51:32;;;;;;;2.25;0.88;;;;;;;;;;5065383;28;20388;-79
2022/09/14 04:53:59;;;;;;;2.97;1.10;;;;;;;;;;5062778;28;20039;-79
2022/09/14 04:56:25;;;;;;;2.53;0.90;;;;;;;;;;5069526;28;20033;-79
2022/09/14 04:59:00;;;;;;;5.30;1.30;;;;;;;;;;5066962;28;20107;-79
2022/09/14 05:01:28;;;;;;;2.97;0.95;;;;;;;;;;5046021;28;20017;-79
2022/09/14 05:03:54;;;;;;;1.92;0.90;;;;;;;;;;5049783;28;20071;-79
2022/09/14 05:06:25;;;;;;;3.38;1.25;;;;;;;;;;5065101;28;20492;-79
2022/09/14 05:08:52;;;;;;;3.15;1.10;;;;;;;;;;5061190;28;20077;-79
2022/09/14 05:11:20;;;;;;;3.30;1.08;;;;;;;;;;5027060;28;20068;-79
2022/09/14 05:13:46;;;;;;;2.80;1.05;;;;;;;;;;5042617;28;20081;-79
2022/09/14 05:16:24;;;;;;;2.97;1.08;;;;;;;;;;5022034;28;20478;-79
2022/09/14 05:18:52;;;;;;;5.88;1.13;;;;;;;;;;5044039;28;20028;-79
2022/09/14 05:21:19;;;;;;;2.67;1.10;;;;;;;;;;5020478;28;20484;-81
2022/09/14 05:23:45;;;;;;;1.70;0.85;;;;;;;;;;5042655;28;20032;-79
2022/09/14 05:26:10;;;;;;;5.82;1.52;;;;;;;;;;5029966;28;20029;-79
2022/09/14 05:28:36;;;;;;;1.92;1.00;;;;;;;;;;5040090;28;20067;-79
2022/09/14 05:31:07;;;;;;;2.90;0.90;;;;;;;;;;5046940;28;20040;-78
2022/09/14 05:33:33;;;;;;;4.32;1.10;;;;;;;;;;5027916;28;20029;-79
2022/09/14 05:36:01;;;;;;;3.40;1.20;;;;;;;;;;5045061;28;20060;-79
2022/09/14 05:38:30;;;;;;;2.47;1.00;;;;;;;;;;5042022;28;20056;-79
2022/09/14 05:40:56;;;;;;;3.50;0.90;;;;;;;;;;5030090;28;20056;-79
2022/09/14 05:43:21;;;;;;;1.58;0.90;;;;;;;;;;5049370;28;20505;-79
2022/09/14 05:45:47;;;;;;;3.45;1.10;;;;;;;;;;5028051;28;20098;-79
2022/09/14 05:48:13;;;;;;;5.10;0.95;;;;;;;;;;5038748;28;20028;-79
2022/09/14 05:50:38;;;;;;;2.90;0.82;;;;;;;;;;5044236;28;20029;-79
2022/09/14 05:53:04;;;;;;;2.80;0.98;;;;;;;;;;5027857;28;20032;-79
2022/09/14 05:55:29;;;;;;;2.35;0.90;;;;;;;;;;5036582;28;20079;-79
2022/09/14 05:57:54;;;;;;;2.55;0.95;;;;;;;;;;5043401;28;20025;-79
2022/09/14 06:00:20;;;;;;;2.67;1.15;;;;;;;;;;5042273;28;20021;-79
2022/09/14 06:02:50;;;;;;;1.58;0.90;;;;;;;;;;5028698;28;20023;-79
2022/09/14 06:05:16;;;;;;;2.90;0.90;;;;;;;;;;5025144;28;20039;-79
2022/09/14 06:07:42;;;;;;;3.72;1.00;;;;;;;;;;5046628;28;20025;-81
2022/09/14 06:10:09;;;;;;;2.72;1.20;;;;;;;;;;5043187;28;20102;-80
2022/09/14 06:12:34;;;;;;;2.45;1.20;;;;;;;;;;5045972;28;20121;-79
2022/09/14 06:14:59;;;;;;;2.38;1.30;;;;;;;;;;5045055;28;20492;-79
2022/09/14 06:17:28;;;;;;;2.08;1.10;;;;;;;;;;5042435;28;20025;-79
2022/09/14 06:19:53;;;;;;;2.95;1.40;;;;;;;;;;5034436;28;20044;-80
2022/09/14 06:22:19;;;;;;;1.95;1.38;;;;;;;;;;5041384;28;20090;-80
2022/09/14 06:24:44;;;;;;;3.88;1.20;;;;;;;;;;5040584;28;20021;-79
2022/09/14 06:27:09;;;;;;;2.70;1.25;;;;;;;;;;5050908;28;20427;-79
2022/09/14 06:29:35;;;;;;;2.13;1.00;;;;;;;;;;5047194;28;20021;-79
2022/09/14 06:32:00;;;;;;;4.93;1.73;;;;;;;;;;5047884;28;20035;-79
2022/09/14 06:34:26;;;;;;;2.78;1.38;;;;;;;;;;5043466;28;20400;-79
2022/09/14 06:36:51;;;;;;;3.78;1.10;;;;;;;;;;5038492;28;20036;-79
2022/09/14 06:39:17;;;;;;;2.50;0.98;;;;;;;;;;5037538;28;20041;-79
2022/09/14 06:41:42;;;;;;;2.35;1.00;;;;;;;;;;5038508;28;20528;-79
2022/09/14 06:44:08;;;;;;;2.80;0.90;;;;;;;;;;5044018;28;20028;-79
2022/09/14 06:46:34;;;;;;;2.97;1.33;;;;;;;;;;5047598;28;20024;-79
2022/09/14 06:49:03;;;;;;;4.00;1.25;;;;;;;;;;5040799;28;20132;-78
2022/09/14 06:51:30;;;;;;;4.80;1.50;;;;;;;;;;5040138;28;20492;-80
2022/09/14 06:53:58;;;;;;;2.95;1.20;;;;;;;;;;5046309;28;20311;-78
2022/09/14 06:56:25;;;;;;;7.03;1.20;;;;;;;;;;5049345;28;20481;-79
2022/09/14 06:58:51;;;;;;;4.82;1.50;;;;;;;;;;5048782;28;20027;-79
2022/09/14 07:01:19;;;;;;;3.22;1.40;;;;;;;;;;5037507;28;20389;-79
2022/09/14 07:03:45;;;;;;;2.22;1.00;;;;;;;;;;5045926;28;20025;-79
2022/09/14 07:06:32;;;;;;;3.70;1.08;;;;;;;;;;5043407;28;20391;-79
2022/09/14 07:08:58;;;;;;;4.60;1.40;;;;;;;;;;5051748;28;20116;-79
2022/09/14 07:11:26;;;;;;;3.63;1.38;;;;;;;;;;5069665;28;20676;-78
2022/09/14 07:13:53;;;;;;;4.15;1.30;;;;;;;;;;5069316;28;20016;-78
2022/09/14 07:16:20;;;;;;;3.55;1.23;;;;;;;;;;5064902;28;20038;-79
2022/09/14 07:19:11;;;;;;;2.80;1.20;;;;;;;;;;5060045;28;20457;-78
2022/09/14 07:21:37;;;;;;;3.90;1.00;;;;;;;;;;5077598;28;20037;-78
2022/09/14 07:24:03;;;;;;;2.25;1.15;;;;;;;;;;5046385;28;20385;-79
2022/09/14 07:26:38;;;;;;;3.88;1.60;;;;;;;;;;5048028;28;20026;-78
2022/09/14 07:29:05;;;;;;;4.43;1.65;;;;;;;;;;5044116;28;20052;-78
2022/09/14 07:31:35;;;;;;;3.63;1.30;;;;;;;;;;5045743;28;20592;-78
2022/09/14 07:34:02;;;;;;;2.63;1.38;;;;;;;;;;5046819;28;20557;-78
2022/09/14 07:36:28;;;;;;;5.28;1.80;;;;;;;;;;5045735;28;20035;-78
2022/09/14 07:38:55;;;;;;;3.63;1.70;;;;;;;;;;5045178;28;20025;-78
2022/09/14 07:41:22;;;;;;;3.65;1.50;;;;;;;;;;5046810;28;20041;-78
2022/09/14 07:43:49;;;;;;;4.43;1.52;;;;;;;;;;5045985;28;20025;-79
2022/09/14 07:46:15;;;;;;;3.65;1.50;;;;;;;;;;5043096;28;20035;-78
2022/09/14 07:48:40;;;;;;;3.90;1.40;;;;;;;;;;5044573;28;20447;-78
2022/09/14 07:51:07;;;;;;;6.18;1.70;;;;;;;;;;5042349;28;20029;-78
2022/09/14 07:53:41;;;;;;;8.02;1.73;;;;;;;;;;5047605;28;20112;-78
2022/09/14 07:56:08;;;;;;;2.95;1.45;;;;;;;;;;5047499;28;20025;-78
2022/09/14 07:58:34;;;;;;;5.82;2.00;;;;;;;;;;5046115;28;20025;-78
2022/09/14 08:01:02;;;;;;;4.10;1.60;;;;;;;;;;5034788;28;20520;-79
2022/09/14 08:03:30;;;;;;;3.55;1.50;;;;;;;;;;5047668;28;20024;-78
2022/09/14 08:06:01;;;;;;;3.92;1.35;;;;;;;;;;5047460;28;20032;-77
2022/09/14 08:08:31;;;;;;;4.45;1.70;;;;;;;;;;5044222;28;20092;-77
2022/09/14 08:11:20;;;;;;;3.53;1.67;;;;;;;;;;5026293;28;20030;-77
2022/09/14 08:13:49;;;;;;;4.03;1.75;;;;;;;;;;5024039;28;20022;-77
2022/09/14 08:16:16;;;;;;;7.72;2.10;;;;;;;;;;5019468;28;20043;-78
2022/09/14 08:18:42;;;;;;;3.85;1.55;;;;;;;;;;5024124;28;20038;-77
2022/09/14 08:21:10;;;;;;;4.05;1.63;;;;;;;;;;5026698;28;20025;-78
2022/09/14 08:23:37;;;;;;;4.68;1.90;;;;;;;;;;5026925;28;20029;-77
2022/09/14 08:26:07;;;;;;;4.38;1.70;;;;;;;;;;5013413;28;20030;-78
2022/09/14 08:28:35;;;;;;;3.00;1.40;;;;;;;;;;5021944;28;20497;-78
2022/09/14 08:31:11;;;;;;;5.70;1.85;;;;;;;;;;5010391;28;20497;-77
2022/09/14 08:33:40;;;;;;;4.28;1.70;;;;;;;;;;5013894;28;20037;-76
2022/09/14 08:36:07;;;;;;;4.15;1.52;;;;;;;;;;5013765;28;20389;-77
2022/09/14 08:38:32;;;;;;;5.80;1.83;;;;;;;;;;5011996;28;20104;-76
2022/09/14 08:41:07;;;;;;;5.40;1.83;;;;;;;;;;5013465;28;20501;-77
2022/09/14 08:43:33;;;;;;;3.15;1.63;;;;;;;;;;5009785;28;20033;-76
2022/09/14 08:46:02;;;;;;;3.67;1.63;;;;;;;;;;5011945;28;20456;-76
2022/09/14 08:48:39;;;;;;;3.55;1.27;;;;;;;;;;5008925;28;20030;-76
2022/09/14 08:51:05;;;;;;;4.78;1.40;;;;;;;;;;5010014;28;20044;-76
2022/09/14 08:53:35;;;;;;;3.83;1.80;;;;;;;;;;5012140;28;20417;-76
2022/09/14 08:56:15;;;;;;;3.53;1.40;;;;;;;;;;5013722;28;20457;-76
2022/09/14 08:58:59;;;;;;;7.35;1.90;;;;;;;;;;5007939;28;20026;-78
2022/09/14 09:01:59;;;;;;;4.65;1.40;;;;;;;;;;5008731;28;20038;-75
2022/09/14 09:04:32;;;;;;;5.43;1.80;;;;;;;;;;5014588;28;20402;-76
2022/09/14 09:07:18;;;;;;;4.75;1.48;;;;;;;;;;5009504;28;20056;-76
2022/09/14 09:09:49;;;;;;;3.58;1.40;;;;;;;;;;5011328;28;20025;-76
2022/09/14 09:12:27;;;;;;;5.10;1.50;;;;;;;;;;5011960;28;20051;-76
2022/09/14 09:14:59;;;;;;;3.38;1.40;;;;;;;;;;5012224;28;20030;-76
2022/09/14 09:17:37;;;;;;;6.43;1.70;;;;;;;;;;5007397;28;20041;-76
2022/09/14 09:20:08;;;;;;;3.60;1.50;;;;;;;;;;5011286;28;20092;-77
2022/09/14 09:22:53;;;;;;;4.18;1.52;;;;;;;;;;5010313;28;20033;-77
2022/09/14 09:25:23;;;;;;;2.92;1.40;;;;;;;;;;5028556;28;20030;-76
2022/09/14 09:27:51;;;;;;;3.85;1.65;;;;;;;;;;5014645;28;20017;-76
2022/09/14 09:30:16;;;;;;;3.47;1.20;;;;;;;;;;5011512;28;20030;-77
2022/09/14 09:32:42;;;;;;;4.45;1.67;;;;;;;;;;5010728;28;20048;-77
2022/09/14 09:35:15;;;;;;;4.13;1.77;;;;;;;;;;5004678;28;20044;-76
2022/09/14 09:37:40;;;;;;;2.70;1.50;;;;;;;;;;5009466;28;20032;-76
2022/09/14 09:40:32;;;;;;;3.25;1.58;;;;;;;;;;5010326;28;20390;-77
2022/09/14 09:43:08;;;;;;;5.60;1.40;;;;;;;;;;5010242;28;20478;-76
2022/09/14 09:45:56;;;;;;;4.63;1.40;;;;;;;;;;5005435;28;20032;-76
2022/09/14 09:48:26;;;;;;;6.65;1.58;;;;;;;;;;5010834;28;20688;-77
2022/09/14 09:51:14;;;;;;;3.42;1.42;;;;;;;;;;5005208;28;20113;-76
2022/09/14 09:54:02;;;;;;;5.13;1.50;;;;;;;;;;5009815;28;20022;-76
2022/09/14 09:56:31;;;;;;;2.42;1.20;;;;;;;;;;5002241;28;20482;-76
2022/09/14 09:58:57;;;;;;;3.38;1.15;;;;;;;;;;5009934;28;20048;-76
2022/09/14 10:01:29;;;;;;;4.13;1.15;;;;;;;;;;5007541;28;20545;-76
2022/09/14 10:04:15;;;;;;;4.05;1.42;;;;;;;;;;5011161;28;20120;-77
2022/09/14 10:06:47;;;;;;;4.30;1.20;;;;;;;;;;5006293;28;20041;-76
2022/09/14 10:09:26;;;;;;;4.70;1.60;;;;;;;;;;5008835;28;20068;-77
2022/09/14 10:12:00;;;;;;;5.07;1.20;;;;;;;;;;5011679;28;20048;-77
2022/09/14 10:14:32;;;;;;;2.92;1.08;;;;;;;;;;5021131;28;20492;-77
2022/09/14 10:17:21;;;;;;;3.55;1.17;;;;;;;;;;5008181;28;20037;-77
2022/09/14 10:19:48;;;;;;;3.85;1.40;;;;;;;;;;5008408;28;20034;-77
2022/09/14 10:22:27;;;;;;;5.57;1.58;;;;;;;;;;4999558;28;20026;-78
2022/09/14 10:24:59;;;;;;;3.83;1.15;;;;;;;;;;5000732;28;20038;-77
2022/09/14 10:27:44;;;;;;;3.60;1.27;;;;;;;;;;5004008;28;20478;-77
2022/09/14 10:30:22;;;;;;;3.40;1.05;;;;;;;;;;5038781;28;20033;-76
2022/09/14 10:33:06;;;;;;;3.10;1.02;;;;;;;;;;4998320;28;20084;-77
2022/09/14 10:35:53;;;;;;;2.47;1.10;;;;;;;;;;5009684;28;20581;-77
2022/09/14 10:38:31;;;;;;;3.25;1.30;;;;;;;;;;5012836;28;20045;-77
2022/09/14 10:41:30;;;;;;;3.17;1.30;;;;;;;;;;5010257;28;20033;-77
2022/09/14 10:44:31;;;;;;;1.88;1.00;;;;;;;;;;5000868;28;20124;-77
2022/09/14 10:47:33;;;;;;;4.65;1.00;;;;;;;;;;5005247;28;20109;-77
2022/09/14 10:50:20;;;;;;;1.48;0.70;;;;;;;;;;5010818;28;20052;-78
2022/09/14 10:53:12;;;;;;;3.40;1.05;;;;;;;;;;5007005;28;20022;-76
2022/09/14 10:55:47;;;;;;;3.03;0.90;;;;;;;;;;5019306;28;20067;-77
2022/09/14 10:58:40;;;;;;;2.55;1.02;;;;;;;;;;5006430;28;20018;-76
2022/09/14 11:01:24;;;;;;;;;;;;;;;;;;5005553;28;20069;-76
2022/09/14 11:04:08;;;;;;;2.95;1.00;;;;;;;;;;5023528;28;19925;-77
2022/09/14 11:07:02;;;;;;;5.28;1.08;;;;;;;;;;5010955;28;20014;-76
2022/09/14 11:09:31;;;;;;;3.17;1.20;;;;;;;;;;5014834;28;20055;-76
2022/09/14 11:12:03;;;;;;;4.10;1.20;;;;;;;;;;5010088;28;20029;-76
2022/09/14 11:14:47;;;;;;;3.78;1.20;;;;;;;;;;5016583;28;20017;-76
2022/09/14 11:17:50;;;;;;;2.30;0.90;;;;;;;;;;5006917;28;20045;-77
2022/09/14 11:20:27;;;;;;;2.72;1.10;;;;;;;;;;5006550;28;20069;-78
2022/09/14 11:23:14;;;;;;;4.85;1.67;;;;;;;;;;5006548;28;20104;-77
2022/09/14 11:25:56;;;;;;;2.10;1.20;;;;;;;;;;5021957;28;20087;-77
2022/09/14 11:28:38;;;;;;;2.70;1.00;;;;;;;;;;5010960;28;20566;-75
2022/09/14 11:31:11;;;;;;;3.05;1.23;;;;;;;;;;5005932;28;20042;-76
2022/09/14 11:33:51;;;;;;;2.65;1.20;;;;;;;;;;5009002;28;20429;-78
2022/09/14 11:36:44;;;;;;;2.20;1.05;;;;;;;;;;5007111;28;20072;-76
2022/09/14 11:39:13;;;;;;;;;;;;;;;;;;5001956;28;20038;-77
2022/09/14 11:41:51;;;;;;;4.55;1.00;;;;;;;;;;5009376;28;20011;-76
2022/09/14 11:44:43;;;;;;;4.80;1.67;;;;;;;;;;5038683;28;20037;-76
2022/09/14 11:47:19;;;;;;;2.42;1.10;;;;;;;;;;4994376;28;20045;-76
2022/09/14 11:49:59;;;;;;;2.03;0.98;;;;;;;;;;5009841;28;20442;-76
2022/09/14 11:52:27;;;;;;;2.60;1.20;;;;;;;;;;5004436;28;20026;-76
2022/09/14 11:54:53;;;;;;;1.73;1.00;;;;;;;;;;5006743;28;20076;-77
2022/09/14 11:57:30;;;;;;;2.25;1.10;;;;;;;;;;5005539;28;20034;-77
2022/09/14 11:59:57;;;;;;;3.47;1.10;;;;;;;;;;5008238;28;20040;-76
2022/09/14 12:02:29;;;;;;;2.60;1.13;;;;;;;;;;5005083;28;20021;-76
2022/09/14 12:05:03;;;;;;;2.58;1.20;;;;;;;;;;5008971;28;20505;-77
2022/09/14 12:07:44;;;;;;;5.03;1.20;;;;;;;;;;5009581;28;20108;-77
2022/09/14 12:10:12;;;;;;;3.05;1.50;;;;;;;;;;5012776;28;20481;-76
2022/09/14 12:12:48;;;;;;;4.20;1.30;;;;;;;;;;5010987;28;20032;-76
2022/09/14 12:15:26;;;;;;;2.13;1.15;;;;;;;;;;5012030;28;20030;-77
2022/09/14 12:18:12;;;;;;;2.60;1.10;;;;;;;;;;5013664;28;20042;-77
2022/09/14 12:20:42;;;;;;;3.45;0.95;;;;;;;;;;5024815;28;20470;-76
2022/09/14 12:23:37;;;;;;;2.78;1.10;;;;;;;;;;5012674;28;20026;-76
2022/09/14 12:26:05;;;;;;;5.03;1.40;;;;;;;;;;5033957;28;20049;-77
2022/09/14 12:28:33;;;;;;;3.78;1.40;;;;;;;;;;5012527;28;20030;-76
2022/09/14 12:30:59;;;;;;;4.65;1.50;;;;;;;;;;5013336;28;20120;-76
2022/09/14 12:33:33;;;;;;;3.70;1.50;;;;;;;;;;5014235;28;20034;-76
2022/09/14 12:35:59;;;;;;;3.75;1.70;;;;;;;;;;5011375;28;20491;-76
2022/09/14 12:38:54;;;;;;;3.53;1.40;;;;;;;;;;5010755;28;20030;-78
2022/09/14 12:41:19;;;;;;;3.85;1.50;;;;;;;;;;5025930;28;20030;-76
2022/09/14 12:43:45;;;;;;;4.18;1.48;;;;;;;;;;5011673;28;20079;-76
2022/09/14 12:46:10;;;;;;;4.03;1.50;;;;;;;;;;5006353;28;20026;-76
2022/09/14 12:48:48;;;;;;;3.13;1.30;;;;;;;;;;5011785;28;20030;-77
2022/09/14 12:51:13;;;;;;;4.53;1.50;;;;;;;;;;5013651;28;20026;-77
2022/09/14 12:53:42;;;;;;;3.92;1.75;;;;;;;;;;5014447;28;20037;-77
2022/09/14 12:56:20;;;;;;;2.45;1.00;;;;;;;;;;5007387;28;20038;-77
2022/09/14 12:59:08;;;;;;;3.08;1.35;;;;;;;;;;5012732;28;20544;-77
2022/09/14 13:01:37;;;;;;;2.53;1.23;;;;;;;;;;5026449;28;20117;-77
2022/09/14 13:04:04;;;;;;;4.93;1.25;;;;;;;;;;5008300;28;20075;-77
2022/09/14 13:06:43;;;;;;;4.43;1.33;;;;;;;;;;5009727;28;20030;-76
2022/09/14 13:09:19;;;;;;;1.85;1.00;;;;;;;;;;5007404;28;20034;-77
2022/09/14 13:11:51;;;;;;;1.75;0.95;;;;;;;;;;5027094;28;20386;-76
2022/09/14 13:14:18;;;;;;;3.17;1.23;;;;;;;;;;5012703;28;20061;-76
2022/09/14 13:16:46;;;;;;;2.70;1.20;;;;;;;;;;5011078;28;20037;-77
2022/09/14 13:19:18;;;;;;;4.68;1.35;;;;;;;;;;5004256;28;20041;-77
2022/09/14 13:21:48;;;;;;;2.75;1.13;;;;;;;;;;5016551;28;20053;-76
2022/09/14 13:24:37;;;;;;;3.90;1.05;;;;;;;;;;5009756;28;20038;-78
2022/09/14 13:27:04;;;;;;;2.25;0.90;;;;;;;;;;5009153;28;20030;-77
2022/09/14 13:29:30;;;;;;;2.15;1.10;;;;;;;;;;5012105;28;20053;-76
2022/09/14 13:31:57;;;;;;;1.88;0.80;;;;;;;;;;5005629;28;20029;-77
2022/09/14 13:34:27;;;;;;;4.72;1.13;;;;;;;;;;5010091;28;20042;-76
2022/09/14 13:36:54;;;;;;;4.03;0.98;;;;;;;;;;5010636;28;20038;-76
2022/09/14 13:39:30;;;;;;;3.00;1.10;;;;;;;;;;5010620;28;20026;-78
2022/09/14 13:41:57;;;;;;;2.55;1.10;;;;;;;;;;5007410;28;20056;-76
2022/09/14 13:44:26;;;;;;;3.58;1.10;;;;;;;;;;5005477;28;20156;-76
2022/09/14 13:46:52;;;;;;;3.00;1.15;;;;;;;;;;5010450;28;20065;-77
2022/09/14 13:49:18;;;;;;;2.20;1.23;;;;;;;;;;5012181;28;20068;-76
2022/09/14 13:51:43;;;;;;;5.10;1.70;;;;;;;;;;5013919;28;20029;-77
2022/09/14 13:54:30;;;;;;;2.80;1.25;;;;;;;;;;5005573;28;20402;-76
2022/09/14 13:57:13;;;;;;;2.40;1.52;;;;;;;;;;5003130;28;20037;-76
2022/09/14 14:00:16;;;;;;;4.03;1.50;;;;;;;;;;5009839;28;20030;-77
2022/09/14 14:02:50;;;;;;;2.50;1.27;;;;;;;;;;5009301;28;20486;-78
2022/09/14 14:05:34;;;;;;;4.53;1.38;;;;;;;;;;5021814;28;20405;-77
2022/09/14 14:08:01;;;;;;;3.58;1.58;;;;;;;;;;5017899;28;20496;-76
2022/09/14 14:10:38;;;;;;;3.08;1.15;;;;;;;;;;5044538;28;20030;-76
2022/09/14 14:13:04;;;;;;;3.95;1.38;;;;;;;;;;5004830;28;20032;-77
2022/09/14 14:15:37;;;;;;;2.22;1.30;;;;;;;;;;5010789;28;20104;-77
2022/09/14 14:18:34;;;;;;;4.05;1.45;;;;;;;;;;5007752;28;20057;-77
2022/09/14 14:21:14;;;;;;;2.67;1.40;;;;;;;;;;4999510;28;20034;-77
2022/09/14 14:23:41;;;;;;;4.97;2.08;;;;;;;;;;5002575;28;20034;-76
2022/09/14 14:26:17;;;;;;;3.47;1.50;;;;;;;;;;5005928;28;20026;-77
2022/09/14 14:28:43;;;;;;;4.07;1.60;;;;;;;;;;5000828;28;20026;-76
2022/09/14 14:31:18;;;;;;;5.85;1.63;;;;;;;;;;5005856;28;20037;-77
2022/09/14 14:33:50;;;;;;;2.88;0.98;;;;;;;;;;4997892;28;20021;-77
2022/09/14 14:36:18;;;;;;;3.83;1.40;;;;;;;;;;5020437;28;20038;-77
2022/09/14 14:38:43;;;;;;;2.28;1.27;;;;;;;;;;4998578;28;20026;-77
2022/09/14 14:41:15;;;;;;;4.28;1.63;;;;;;;;;;5031597;28;20437;-76
2022/09/14 14:43:45;;;;;;;3.67;1.27;;;;;;;;;;5014300;28;20033;-77
2022/09/14 14:46:11;;;;;;;3.83;1.55;;;;;;;;;;5003838;28;20022;-79
2022/09/14 14:48:37;;;;;;;6.38;2.30;;;;;;;;;;4993219;28;20022;-77
2022/09/14 14:51:02;;;;;;;3.78;1.95;;;;;;;;;;5003224;28;20049;-78
2022/09/14 14:53:28;;;;;;;4.45;2.10;;;;;;;;;;4999363;28;20033;-77
2022/09/14 14:55:53;;;;;;;5.72;2.20;;;;;;;;;;4997148;28;20030;-77
2022/09/14 14:58:20;;;;;;;3.95;2.05;;;;;;;;;;5000685;28;20389;-76
2022/09/14 15:00:46;;;;;;;5.07;2.30;;;;;;;;;;4995410;28;20168;-77
2022/09/14 15:03:14;;;;;;;5.70;2.00;;;;;;;;;;5010222;28;20445;-79
2022/09/14 15:05:40;;;;;;;3.60;1.88;;;;;;;;;;4999804;28;20057;-76
2022/09/14 15:08:07;;;;;;;5.53;2.13;;;;;;;;;;5002480;28;21377;-79
2022/09/14 15:10:33;;;;;;;6.18;2.00;;;;;;;;;;4998895;28;20494;-78
2022/09/14 15:12:58;;;;;;;3.85;1.73;;;;;;;;;;4995866;28;20037;-77